createdAt,value
2023-05-05T00:02:02.733Z,4.22
2023-05-05T00:08:41.436Z,4.28
2023-05-05T00:13:52.617Z,3.85
2023-05-05T00:16:19.442Z,4.45
2023-05-05T00:18:46.382Z,4.65
2023-05-05T00:23:57.183Z,4.38
2023-05-05T00:33:04.547Z,4.15
2023-05-05T00:35:31.507Z,4.35
2023-05-05T00:37:58.519Z,4.93
2023-05-05T00:40:34.624Z,4.43
2023-05-05T00:43:01.458Z,4.90
2023-05-05T00:49:14.132Z,4.43
2023-05-05T00:51:41.062Z,4.80
2023-05-05T00:54:07.988Z,4.60
2023-05-05T01:07:07.462Z,4.40
2023-05-05T01:16:25.235Z,4.32
2023-05-05T01:19:07.078Z,4.30
2023-05-05T01:21:56.019Z,4.20
2023-05-05T01:24:47.728Z,4.07
2023-05-05T01:27:45.338Z,4.65
2023-05-05T01:30:24.098Z,3.80
2023-05-05T01:32:55.363Z,4.18
2023-05-05T01:35:57.530Z,3.50
2023-05-05T01:38:45.404Z,3.95
2023-05-05T01:41:19.463Z,4.22
2023-05-05T01:45:11.722Z,4.38
2023-05-05T01:46:41.873Z,3.60
2023-05-05T01:49:12.864Z,4.32
2023-05-05T01:51:41.548Z,3.90
2023-05-05T01:54:09.348Z,3.80
2023-05-05T01:56:39.908Z,4.10
2023-05-05T02:00:07.407Z,3.95
2023-05-05T02:03:04.005Z,3.85
2023-05-05T02:05:33.226Z,4.43
2023-05-05T02:13:46.934Z,4.45
2023-05-05T02:16:14.256Z,4.13
2023-05-05T02:18:43.176Z,4.43
2023-05-05T02:21:53.844Z,4.45
2023-05-05T02:24:20.660Z,3.78
2023-05-05T02:26:50.221Z,4.70
2023-05-05T02:29:42.035Z,4.63
2023-05-05T02:32:53.893Z,4.28
2023-05-05T02:35:27.305Z,4.82
2023-05-05T02:43:22.847Z,4.50
2023-05-05T02:45:49.752Z,4.85
2023-05-05T02:48:16.689Z,4.70
2023-05-05T02:51:20.879Z,4.57
2023-05-05T02:53:55.837Z,4.55
2023-05-05T02:56:49.007Z,4.70
2023-05-05T02:59:50.937Z,4.80
2023-05-05T03:02:24.585Z,4.85
2023-05-05T03:05:02.587Z,4.53
2023-05-05T03:08:16.623Z,4.45
2023-05-05T03:10:51.682Z,4.80
2023-05-05T03:19:33.434Z,4.22
2023-05-05T03:22:18.656Z,4.80
2023-05-05T03:24:50.506Z,4.78
2023-05-05T03:27:26.502Z,4.45
2023-05-05T03:29:53.452Z,4.90
2023-05-05T03:32:20.538Z,4.50
2023-05-05T03:34:47.400Z,3.95
2023-05-05T03:37:14.348Z,4.82
2023-05-05T03:40:14.858Z,5.18
2023-05-05T03:42:51.068Z,4.28
2023-05-05T03:45:18.011Z,4.75
2023-05-05T03:48:02.099Z,4.20
2023-05-05T03:51:16.573Z,4.93
2023-05-05T03:56:11.956Z,4.68
2023-05-05T03:58:44.106Z,4.43
2023-05-05T04:01:10.918Z,4.80
2023-05-05T04:04:01.932Z,4.38
2023-05-05T04:06:28.817Z,4.75
2023-05-05T04:09:28.392Z,4.53
2023-05-05T04:11:56.140Z,4.22
2023-05-05T04:14:40.911Z,4.72
2023-05-05T04:17:07.687Z,4.80
2023-05-05T04:19:34.853Z,4.97
2023-05-05T04:22:23.728Z,4.63
2023-05-05T04:28:21.969Z,4.82
2023-05-05T04:34:14.904Z,5.20
2023-05-05T04:36:41.692Z,4.90
2023-05-05T04:42:02.552Z,4.78
2023-05-05T04:44:35.478Z,5.03
2023-05-05T04:47:04.884Z,5.50
2023-05-05T04:49:32.109Z,5.32
2023-05-05T04:55:19.102Z,5.70
2023-05-05T04:57:45.950Z,5.63
2023-05-05T05:00:13.346Z,5.38
2023-05-05T05:05:55.515Z,6.03
2023-05-05T05:17:33.695Z,6.28
2023-05-05T05:23:54.993Z,5.53
2023-05-05T05:26:22.409Z,5.05
2023-05-05T05:31:53.504Z,5.65
2023-05-05T05:34:21.683Z,5.80
2023-05-05T05:36:51.787Z,5.68
2023-05-05T05:39:21.965Z,5.93
2023-05-05T05:45:23.936Z,5.20
2023-05-05T05:50:32.486Z,4.70
2023-05-05T05:53:36.490Z,5.63
2023-05-05T05:58:53.074Z,5.47
2023-05-05T06:01:25.349Z,5.85
2023-05-05T06:06:22.544Z,5.25
2023-05-05T06:17:46.994Z,5.60
2023-05-05T06:23:59.155Z,6.13
2023-05-05T06:26:26.103Z,5.93
2023-05-05T06:28:52.850Z,6.40
2023-05-05T06:37:36.174Z,6.50
2023-05-05T06:40:02.998Z,6.72
2023-05-05T06:45:36.245Z,6.60
2023-05-05T06:53:55.387Z,5.07
2023-05-05T07:00:23.688Z,5.18
2023-05-05T07:08:23.291Z,5.20
2023-05-05T07:11:03.008Z,5.82
2023-05-05T07:13:36.140Z,6.82
2023-05-05T07:16:03.533Z,7.43
2023-05-05T07:18:30.502Z,8.85
2023-05-05T07:20:57.579Z,7.75
2023-05-05T07:27:27.621Z,7.47
2023-05-05T07:32:55.381Z,6.18
2023-05-05T07:44:31.645Z,7.38
2023-05-05T07:50:11.131Z,8.63
2023-05-05T07:52:48.441Z,8.40
2023-05-05T08:07:54.449Z,7.00
2023-05-05T08:10:53.291Z,7.25
2023-05-05T08:13:20.639Z,7.47
2023-05-05T08:15:47.829Z,7.47
2023-05-05T08:21:02.922Z,7.80
2023-05-05T08:27:07.456Z,6.75
2023-05-05T08:35:36.012Z,7.20
2023-05-05T08:38:02.809Z,8.00
2023-05-05T08:40:38.906Z,7.57
2023-05-05T08:43:27.716Z,7.10
2023-05-05T08:52:44.840Z,6.78
2023-05-05T08:55:24.282Z,6.50
2023-05-05T08:57:53.042Z,6.63
2023-05-05T09:00:21.073Z,5.78
2023-05-05T09:02:48.475Z,5.18
2023-05-05T09:08:46.242Z,4.65
2023-05-05T09:14:31.496Z,4.32
2023-05-05T09:23:35.223Z,5.20
2023-05-05T09:26:37.950Z,5.15
2023-05-05T09:29:07.913Z,5.10
2023-05-05T09:31:45.126Z,4.68
2023-05-05T09:40:20.544Z,5.45
2023-05-05T09:42:50.104Z,5.07
2023-05-05T09:45:19.938Z,4.10
2023-05-05T09:53:52.944Z,5.20
2023-05-05T09:56:20.895Z,3.90
2023-05-05T10:01:27.393Z,3.50
2023-05-05T10:03:57.665Z,3.75
2023-05-05T10:07:05.750Z,4.03
2023-05-05T10:13:03.109Z,4.68
2023-05-05T10:18:47.163Z,4.88
2023-05-05T10:21:18.150Z,4.68
2023-05-05T10:24:32.308Z,4.68
2023-05-05T10:30:17.431Z,4.25
2023-05-05T10:33:38.826Z,4.00
2023-05-05T10:36:13.228Z,3.80
2023-05-05T10:38:41.587Z,3.65
2023-05-05T10:59:26.525Z,3.60
2023-05-05T11:01:55.699Z,3.90
2023-05-05T11:04:38.597Z,4.03
2023-05-05T11:07:09.803Z,3.67
2023-05-05T11:09:55.428Z,4.13
2023-05-05T11:12:22.377Z,3.47
2023-05-05T11:15:24.262Z,3.88
2023-05-05T11:17:51.139Z,4.50
2023-05-05T11:20:18.657Z,3.38
2023-05-05T11:23:07.636Z,3.50
2023-05-05T11:25:37.565Z,3.65
2023-05-05T11:28:54.575Z,3.58
2023-05-05T11:31:21.436Z,4.15
2023-05-05T11:33:48.672Z,3.20
2023-05-05T11:36:19.677Z,3.58
2023-05-05T11:39:20.658Z,3.00
2023-05-05T11:42:23.664Z,3.30
2023-05-05T11:44:51.352Z,3.63
2023-05-05T11:47:18.389Z,3.92
2023-05-05T11:49:45.173Z,3.90
2023-05-05T11:52:23.251Z,4.00
2023-05-05T11:54:50.602Z,3.78
2023-05-05T11:57:21.167Z,4.30
2023-05-05T12:00:13.678Z,4.18
2023-05-05T12:02:40.808Z,3.92
2023-05-05T12:05:08.169Z,3.88
2023-05-05T12:07:39.502Z,3.55
2023-05-05T12:10:12.562Z,4.10
2023-05-05T12:15:45.478Z,4.85
2023-05-05T12:18:19.698Z,4.10
2023-05-05T12:20:47.134Z,4.03
2023-05-05T12:27:08.991Z,3.78
2023-05-05T12:32:25.012Z,3.53
2023-05-05T12:34:54.463Z,3.63
2023-05-05T12:39:49.713Z,4.38
2023-05-05T12:42:17.395Z,3.08
2023-05-05T12:45:25.934Z,3.30
2023-05-05T12:47:52.700Z,3.95
2023-05-05T12:50:32.446Z,3.60
2023-05-05T12:59:37.840Z,3.28
2023-05-05T13:02:07.279Z,2.83
2023-05-05T13:04:34.518Z,2.80
2023-05-05T13:07:26.500Z,2.42
2023-05-05T13:12:49.041Z,3.00
2023-05-05T13:18:03.277Z,3.70
2023-05-05T13:20:29.997Z,3.90
2023-05-05T13:22:57.314Z,3.20
2023-05-05T13:25:25.142Z,3.30
2023-05-05T13:30:49.370Z,2.83
2023-05-05T13:36:59.418Z,3.65
2023-05-05T13:39:26.216Z,2.75
2023-05-05T13:41:53.580Z,2.70
2023-05-05T13:44:23.405Z,2.50
2023-05-05T13:46:50.307Z,3.05
2023-05-05T13:49:32.062Z,3.63
2023-05-05T13:52:23.385Z,3.40
2023-05-05T13:54:50.217Z,3.45
2023-05-05T13:57:31.282Z,3.33
2023-05-05T13:59:58.166Z,3.38
2023-05-05T14:02:25.045Z,2.88
2023-05-05T14:04:51.815Z,2.92
2023-05-05T14:07:18.514Z,2.65
2023-05-05T14:09:45.211Z,2.58
2023-05-05T14:12:12.224Z,2.53
2023-05-05T14:14:39.220Z,3.08
2023-05-05T14:17:06.205Z,2.60
2023-05-05T14:19:33.441Z,3.00
2023-05-05T14:22:00.197Z,2.75
2023-05-05T14:27:07.573Z,2.60
2023-05-05T14:29:34.247Z,2.63
2023-05-05T14:35:03.478Z,2.42
2023-05-05T14:37:33.666Z,2.60
2023-05-05T14:40:06.746Z,3.85
2023-05-05T14:42:33.440Z,2.38
2023-05-05T14:48:54.825Z,2.40
2023-05-05T14:51:21.513Z,2.40
2023-05-05T15:19:25.396Z,2.80
2023-05-05T15:21:55.420Z,2.67
2023-05-05T15:24:55.915Z,2.13
2023-05-05T15:27:44.447Z,2.28
2023-05-05T15:30:12.809Z,2.70
2023-05-05T15:33:16.214Z,2.15
2023-05-05T15:35:43.008Z,2.15
2023-05-05T15:38:10.145Z,2.20
2023-05-05T15:40:36.877Z,2.25
2023-05-05T15:43:03.547Z,2.38
2023-05-05T15:49:58.149Z,2.47
2023-05-05T15:52:24.874Z,1.98
2023-05-05T15:54:51.837Z,2.50
2023-05-05T15:57:21.545Z,2.50
2023-05-05T16:00:32.899Z,2.40
2023-05-05T16:03:21.061Z,2.30
2023-05-05T16:05:47.942Z,2.03
2023-05-05T16:08:23.495Z,2.20
2023-05-05T16:11:11.525Z,2.17
2023-05-05T16:13:39.132Z,2.20
2023-05-05T16:16:06.842Z,2.10
2023-05-05T16:18:33.685Z,2.20
2023-05-05T16:21:00.913Z,2.35
2023-05-05T16:23:47.149Z,2.03
2023-05-05T16:26:14.093Z,1.88
2023-05-05T16:28:43.846Z,2.28
2023-05-05T16:31:10.877Z,2.40
2023-05-05T16:33:43.194Z,2.55
2023-05-05T16:36:14.181Z,3.10
2023-05-05T16:38:41.435Z,3.42
2023-05-05T16:41:08.236Z,2.95
2023-05-05T16:43:37.159Z,2.92
2023-05-05T16:52:26.094Z,2.60
2023-05-05T16:54:55.601Z,2.17
2023-05-05T16:58:23.629Z,3.05
2023-05-05T17:00:54.532Z,2.70
2023-05-05T17:03:22.365Z,2.95
2023-05-05T17:09:28.954Z,3.20
2023-05-05T17:11:55.984Z,3.17
2023-05-05T17:14:24.636Z,2.83
2023-05-05T17:16:51.519Z,2.78
2023-05-05T17:20:07.630Z,2.60
2023-05-05T17:22:34.378Z,2.67
2023-05-05T17:28:07.470Z,3.47
2023-05-05T17:30:47.757Z,3.33
2023-05-05T17:33:26.238Z,3.25
2023-05-05T17:35:53.030Z,3.28
2023-05-05T17:39:10.555Z,2.92
2023-05-05T17:42:30.446Z,4.72
2023-05-05T17:44:58.877Z,4.28
2023-05-05T17:50:01.258Z,4.28
2023-05-05T17:53:28.493Z,3.92
2023-05-05T18:00:07.946Z,3.00
2023-05-05T18:05:56.617Z,3.72
2023-05-05T18:08:23.361Z,2.90
2023-05-05T18:10:50.194Z,2.60
2023-05-05T18:13:17.184Z,2.90
2023-05-05T18:15:44.125Z,2.88
2023-05-05T18:28:57.782Z,2.58
2023-05-05T18:31:25.072Z,2.35
2023-05-05T18:33:51.875Z,2.60
2023-05-05T18:40:16.750Z,2.88
2023-05-05T18:43:05.218Z,2.25
2023-05-05T18:45:32.038Z,2.20
2023-05-05T18:47:58.970Z,2.10
2023-05-05T18:50:26.010Z,2.40
2023-05-05T18:52:53.139Z,2.45
2023-05-05T18:55:19.958Z,2.72
2023-05-05T18:57:47.238Z,2.58
2023-05-05T19:00:14.364Z,2.60
2023-05-05T19:02:44.117Z,2.50
2023-05-05T19:05:11.533Z,2.97
2023-05-05T19:07:51.053Z,3.00
2023-05-05T19:10:20.987Z,2.50
2023-05-05T19:12:50.800Z,2.33
2023-05-05T19:18:32.723Z,2.55
2023-05-05T19:20:59.628Z,2.70
2023-05-05T19:26:48.171Z,2.80
2023-05-05T19:33:08.009Z,3.13
2023-05-05T19:35:34.764Z,2.70
2023-05-05T19:38:04.238Z,3.10
2023-05-05T19:52:54.378Z,2.80
2023-05-05T19:59:23.655Z,3.05
2023-05-05T20:01:53.760Z,2.78
2023-05-05T20:04:21.212Z,3.08
2023-05-05T20:06:48.613Z,2.92
2023-05-05T20:09:18.959Z,2.75
2023-05-05T20:11:45.800Z,2.60
2023-05-05T20:25:16.718Z,2.90
2023-05-05T20:27:47.297Z,2.75
2023-05-05T20:30:14.671Z,2.50
2023-05-05T20:32:41.510Z,3.20
2023-05-05T20:35:09.575Z,2.85
2023-05-05T20:43:50.608Z,3.30
2023-05-05T20:46:39.289Z,3.00
2023-05-05T20:49:06.363Z,3.03
2023-05-05T20:51:34.993Z,3.10
2023-05-05T20:54:05.740Z,2.65
2023-05-05T20:57:03.782Z,2.83
2023-05-05T20:59:30.726Z,2.92
2023-05-05T21:02:01.024Z,2.70
2023-05-05T21:04:49.796Z,2.97
2023-05-05T21:07:22.805Z,2.40
2023-05-05T21:09:49.542Z,2.70
2023-05-05T21:12:16.453Z,3.08
2023-05-05T21:14:45.244Z,3.13
2023-05-05T21:17:21.005Z,3.40
2023-05-05T21:19:50.516Z,2.83
2023-05-05T21:22:17.238Z,3.45
2023-05-05T21:25:53.507Z,3.17
2023-05-05T21:28:49.356Z,3.03
2023-05-05T21:34:07.171Z,4.00
2023-05-05T21:40:34.631Z,3.58
2023-05-05T21:50:03.747Z,3.58
2023-05-05T21:52:36.744Z,3.03
2023-05-05T21:55:03.906Z,3.55
2023-05-05T21:57:30.676Z,3.70
2023-05-05T22:02:41.368Z,3.60
2023-05-05T22:05:08.480Z,4.07
2023-05-05T22:07:44.804Z,4.25
2023-05-05T22:16:53.225Z,3.70
2023-05-05T22:19:43.354Z,3.63
2023-05-05T22:22:10.325Z,3.80
2023-05-05T22:25:42.056Z,3.38
2023-05-05T22:28:42.791Z,4.15
2023-05-05T22:31:09.608Z,3.55
2023-05-05T22:33:42.546Z,3.35
2023-05-05T22:36:10.304Z,3.72
2023-05-05T22:41:21.329Z,3.70
2023-05-05T22:43:50.890Z,3.40
2023-05-05T22:46:17.794Z,3.15
2023-05-05T22:48:56.971Z,3.90
2023-05-05T22:51:23.784Z,3.22
2023-05-05T22:56:29.823Z,3.55
2023-05-05T22:59:05.878Z,3.45
2023-05-05T23:01:35.963Z,3.40
2023-05-05T23:04:05.613Z,3.90
2023-05-05T23:06:44.973Z,3.92
2023-05-05T23:09:27.031Z,3.47
2023-05-05T23:11:56.929Z,3.70
2023-05-05T23:14:23.765Z,3.40
2023-05-05T23:24:04.141Z,4.20
2023-05-05T23:26:31.050Z,3.50
2023-05-05T23:29:26.221Z,3.80
2023-05-05T23:39:14.834Z,3.83
2023-05-05T23:42:28.220Z,3.90
2023-05-05T23:44:55.035Z,4.20
2023-05-05T23:50:19.177Z,4.22
2023-05-05T23:54:12.378Z,4.07
2023-05-05T23:57:04.275Z,4.50
